createdAt,value
2023-05-24T00:08:23.907Z,99736.74
2023-05-24T00:18:32.285Z,99735.11
2023-05-24T00:28:37.764Z,99735.55
2023-05-24T00:38:43.082Z,99732.79
2023-05-24T00:48:46.936Z,99734.30
2023-05-24T00:58:54.990Z,99727.38
2023-05-24T01:09:26.648Z,99730.95
2023-05-24T01:20:03.309Z,99731.01
2023-05-24T01:30:07.824Z,99729.50
2023-05-24T01:40:14.684Z,99731.02
2023-05-24T01:50:27.158Z,99732.77
2023-05-24T02:00:35.699Z,99730.80
2023-05-24T02:10:44.888Z,99731.83
2023-05-24T02:20:50.289Z,99729.59
2023-05-24T02:30:53.938Z,99736.02
2023-05-24T02:41:00.996Z,99742.36
2023-05-24T02:51:04.849Z,99738.71
2023-05-24T03:01:08.836Z,99740.70
2023-05-24T03:11:13.099Z,99741.83
2023-05-24T03:21:21.101Z,99749.01
2023-05-24T03:31:28.661Z,99752.25
2023-05-24T03:41:34.585Z,99757.42
2023-05-24T03:51:38.558Z,99759.46
2023-05-24T04:01:42.259Z,99764.20
2023-05-24T04:11:45.887Z,99768.88
2023-05-24T04:21:50.465Z,99779.12
2023-05-24T04:31:56.615Z,99785.44
2023-05-24T04:42:01.480Z,99793.75
2023-05-24T04:52:05.501Z,99799.71
2023-05-24T05:02:09.096Z,99803.23
2023-05-24T05:12:14.574Z,99804.04
2023-05-24T05:22:18.263Z,99808.77
2023-05-24T05:32:23.892Z,99818.02
2023-05-24T05:42:27.582Z,99821.53
2023-05-24T05:52:32.402Z,99827.20
2023-05-24T06:02:36.195Z,99833.86
2023-05-24T06:12:40.831Z,99842.64
2023-05-24T06:22:45.836Z,99848.94
2023-05-24T06:32:49.537Z,99860.75
2023-05-24T06:42:58.887Z,99870.38
2023-05-24T06:53:07.722Z,99885.50
2023-05-24T07:03:12.983Z,99896.98
2023-05-24T07:13:18.457Z,99899.20
2023-05-24T07:23:22.002Z,99910.88
2023-05-24T07:33:25.654Z,99923.54
2023-05-24T07:43:33.011Z,99937.39
2023-05-24T07:53:38.074Z,99945.63
2023-05-24T08:03:41.833Z,99951.61
2023-05-24T08:13:47.539Z,99955.83
2023-05-24T08:23:51.405Z,99960.70
2023-05-24T08:33:56.460Z,99962.98
2023-05-24T08:44:02.796Z,99976.87
2023-05-24T08:54:07.778Z,99979.44
2023-05-24T09:04:12.084Z,99978.20
2023-05-24T09:14:16.084Z,99979.55
2023-05-24T09:24:20.832Z,99981.92
2023-05-24T09:34:24.446Z,99986.77
2023-05-24T09:44:30.688Z,99986.35
2023-05-24T09:54:36.583Z,99990.65
2023-05-24T10:04:42.522Z,99989.61
2023-05-24T10:14:46.453Z,99985.95
2023-05-24T10:24:55.682Z,99991.25
2023-05-24T10:35:00.863Z,99998.23
2023-05-24T10:45:36.073Z,100007.29
2023-05-24T10:56:09.855Z,100011.00
2023-05-24T11:06:15.633Z,100009.27
2023-05-24T11:16:35.750Z,100004.24
2023-05-24T11:26:41.118Z,100003.69
2023-05-24T11:36:46.393Z,100006.02
2023-05-24T11:47:03.582Z,100005.77
2023-05-24T11:57:07.267Z,100007.48
2023-05-24T12:07:13.270Z,100006.04
2023-05-24T12:17:18.697Z,100010.55
2023-05-24T12:27:35.002Z,100012.92
2023-05-24T12:37:40.375Z,100006.15
2023-05-24T12:47:45.155Z,100013.84
2023-05-24T12:57:54.293Z,100011.59
2023-05-24T13:07:58.315Z,100008.92
2023-05-24T13:18:03.753Z,100010.11
2023-05-24T13:28:07.608Z,100012.79
2023-05-24T13:38:11.317Z,100011.77
2023-05-24T13:48:15.389Z,100009.77
2023-05-24T13:58:25.474Z,100011.39
2023-05-24T14:08:35.959Z,100011.86
2023-05-24T14:19:11.416Z,100023.89
2023-05-24T14:42:11.248Z,100017.25
2023-05-24T14:52:26.119Z,100015.65
2023-05-24T15:02:31.508Z,100019.35
2023-05-24T15:12:35.822Z,100023.71
2023-05-24T15:22:39.756Z,100025.48
2023-05-24T15:32:43.694Z,100033.80
2023-05-24T15:42:47.325Z,100027.13
2023-05-24T15:52:51.147Z,100022.73
2023-05-24T16:02:56.129Z,100026.12
2023-05-24T16:13:00.013Z,100028.02
2023-05-24T16:23:03.995Z,100036.05
2023-05-24T16:33:07.943Z,100043.11
2023-05-24T16:43:11.968Z,100047.52
2023-05-24T16:53:16.060Z,100053.84
2023-05-24T17:13:31.639Z,100063.80
2023-05-24T17:23:40.802Z,100064.38
2023-05-24T17:33:44.873Z,100056.83
2023-05-24T17:43:50.215Z,100072.16
2023-05-24T17:53:54.341Z,100079.39
2023-05-24T18:03:58.299Z,100092.20
2023-05-24T18:14:04.097Z,100097.59
2023-05-24T18:24:08.007Z,100110.69
2023-05-24T18:34:12.956Z,100116.64
2023-05-24T18:44:20.299Z,100131.05
2023-05-24T18:54:30.687Z,100137.75
2023-05-24T19:04:34.708Z,100150.77
2023-05-24T19:14:40.333Z,100156.38
2023-05-24T19:47:14.403Z,100175.11
2023-05-24T19:57:18.377Z,100174.80
2023-05-24T20:07:22.154Z,100179.09
2023-05-24T20:17:25.852Z,100189.17
2023-05-24T20:27:30.234Z,100188.33
2023-05-24T20:37:34.047Z,100185.64
2023-05-24T20:47:42.287Z,100184.86
2023-05-24T20:57:48.072Z,100184.02
2023-05-24T21:07:59.209Z,100186.67
2023-05-24T21:18:04.729Z,100193.70
2023-05-24T21:28:08.559Z,100193.84
2023-05-24T21:38:12.182Z,100197.91
2023-05-24T21:48:15.719Z,100201.89
2023-05-24T21:58:19.486Z,100210.44
2023-05-24T22:08:23.159Z,100214.90
2023-05-24T22:18:28.550Z,100212.23
2023-05-24T22:29:00.979Z,100212.41
2023-05-24T22:39:05.515Z,100211.02
2023-05-24T22:49:13.378Z,100212.50
2023-05-24T22:59:17.089Z,100207.41
2023-05-24T23:09:35.099Z,100210.45
2023-05-24T23:19:43.358Z,100211.73
2023-05-24T23:29:47.256Z,100202.38
2023-05-24T23:39:51.027Z,100205.50
2023-05-24T23:49:54.741Z,100212.18
2023-05-24T23:59:58.338Z,100220.89
